AirNav   Pilot Hours Calculator
 
 826 users online  

5S0 Oakridge State Airport
Oakridge, Oregon, USA

GOING TO OAKRIDGE?


FAA INFORMATION EFFECTIVE 25 MARCH 2021

Location

FAA Identifier: 5S0
Lat/Long: 43-45-09.2000N 122-30-16.3000W
43-45.153333N 122-30.271667W
43.7525556,-122.5045278
(estimated)
Elevation: 1393 ft. / 425 m (estimated)
Variation: 19E (1985)
From city: 1 mile W of OAKRIDGE, OR
Time zone: UTC -7 (UTC -8 during Standard Time)
Zip code: 97492

Airport Operations

Airport use: Open to the public
Activation date: 12/1961
Control tower: no
ARTCC: SEATTLE CENTER
FSS: MC MINNVILLE FLIGHT SERVICE STATION
NOTAMs facility: MMV (NOTAM-D service available)
Attendance: UNATNDD
Wind indicator: yes
Segmented circle: yes
SEGMENTED CIRCLE MKD WITH ORANGE AND WHITE TIRES.

Airport Communications

CTAF: 122.9

Nearby radio navigation aids

VOR radial/distance  VOR name  Freq  Var
EUGr110/38.1EUGENE VORTAC112.9015E

Airport Services

Parking: tiedowns
Airframe service: NONE
Powerplant service: NONE
Bottled oxygen: NONE
Bulk oxygen: NONE

Runway Information

Runway 9/27

Dimensions: 3610 x 47 ft. / 1100 x 14 m
Surface: asphalt, in poor condition
NUMEROUS AREAS OF UNSEALED LONGITUDINAL AND TRANSVERSE CRACKING ALONG FULL LENGTH OF RUNWAY.
RUNWAY 9  RUNWAY 27
Latitude: 43-45.221740N43-45.086217N
Longitude: 122-30.670678W122-29.872343W
Elevation: 1393.0 ft.1367.0 ft.
Traffic pattern: leftleft
Runway heading: 084 magnetic, 103 true264 magnetic, 283 true
Markings: basic, in fair conditionbasic, in fair condition
Obstructions: 60 ft. tree, 850 ft. from runway, 135 ft. left of centerline, 10:1 slope to clear
RWY 09 +35 FT TREES; 70FT FM RY END 72 FT RIGHT.
28 ft. road, 390 ft. from runway, 6:1 slope to clear
TERRAIN RISES SMOOTHLY AT 14:1 FM RY END TO +14 FT AT 200 FT FM RY & CONTINUES TO RISE TO +65 FT AT 920 FT FM RY END ON CNTRLN.

Airport Ownership and Management from official FAA records

Ownership: Publicly-owned
Owner: OREGON DEPARTMENT OF AVIATION
3040 25TH ST, SE
SALEM, OR 97310
Phone 503-378-4880
Manager: STATE AIRPORTS MGR.
3040 25TH ST, SE
SALEM, OR 97310
Phone 503-378-4880

Airport Operational Statistics

Aircraft based on the field: 5
Single engine airplanes: 5
    
Aircraft operations: avg 33/week *
71% transient general aviation
18% air taxi
12% local general aviation
* for 12-month period ending 21 October 2019

Additional Remarks

USFS HELICOPTERS ACTIVE INVOF ARPT DURING FIRE SEASON.
DEER AND ELK ON AND INVOF ARPT.
IRREGULAR WINTER MAINTENANCE; ARPT MAY BE CLOSED BY SNOW.
SURFACE CONDITIONS NOT REPORTED.
FOR CD CTC SEATTLE ARTCC AT 253-351-3694.

Instrument Procedures

There are no published instrument procedures at 5S0.

Some nearby airports with instrument procedures:

77S - Hobby Field Airport (24 nm NW)
KEUG - Mahlon Sweet Field Airport (38 nm NW)
S21 - Sunriver Airport (46 nm E)
KRBG - Roseburg Regional Airport (48 nm SW)
KCVO - Corvallis Municipal Airport (56 nm NW)
 
Loc | Ops | Rwys | IFR | FBO | Links
Com | Nav | Svcs | Stats | Notes
Area around 5S0 (Oakridge State Airport)
 
Road maps at: MapQuest Bing Google
 
Aerial photo
WARNING: Photo may not be current or correct
Aerial photo of 5S0 (Oakridge State Airport)
Photo taken 05-Jan-2014
looking northwest.

Do you have a better or more recent aerial photo of Oakridge State Airport that you would like to share? If so, please send us your photo.

 
Sectional chart

 
Airport distance calculator
Flying to Oakridge State Airport? Find the distance to fly.

From to 5S0

Sunrise and sunset
Times for 14-Apr-2021
 Local
(UTC-7)
 Zulu
(UTC)
Morning civil twilight06:0013:00
Sunrise06:3013:30
Sunset19:5102:51
Evening civil twilight20:2103:21

Current date and time
Zulu (UTC)  15-Apr-2021 03:25:55
Local (UTC-7)  14-Apr-2021 20:25:55
 
METAR
K77S 
24nm NW 
150255Z AUTO 35009KT 10SM CLR 15/M02 A3000 RMK A01
KEUG 
38nm NW 
150254Z 36008KT 10SM CLR 13/03 A3001 RMK AO2 SLP164 T01280033 55001
KS21 
46nm E 
150255Z AUTO 02009G15KT 10SM CLR 06/M08 A3007 RMK AO2
KRBG 
48nm SW 
150253Z AUTO 36007KT 10SM CLR 17/M07 A2999 RMK AO2 SLP155 T01721072 53004
TAF
KEUG 
38nm NW 
150029Z 1500/1524 01017G23KT P6SM SKC FM150300 36006KT P6SM SKC FM151200 VRB05KT P6SM SKC FM151800 01008KT P6SM SKC
NOTAMs
Click for the latest NOTAMs
NOTAMs are issued by the DoD/FAA and will open in a separate window not controlled by AirNav.

 

 
 

Would you like to see your business listed on this page?

 If your business provides an interesting product or service to pilots, flight crews, aircraft, or users of the Oakridge State Airport, you should consider listing it here.  To start the listing process, click on the button below
 
Add a business
 

Other Pages about Oakridge State Airport

Update a link
 
Copyright © AirNav, LLC. All rights reserved. Privacy Policy  Contact